Milwaukee, WI

1:59 AM CDT on October 31, 2014 (GMT -0500)
Gen Mitchell International | Change Station
CLOSE
Current Station
Airport
Location: Milwaukee,
Elevation: 692 ft
Nearby Weather Stations
Active Advisory: Wind Advisory

Elev 692 ft 42.96 °N, 87.90 °W | Updated 7 minutes ago

Overcast
Overcast
44 °F
Feels Like 36 °F
N
18
Wind Variable Wind from NW
Gusts 25 mph

Today
High -- | Low -- °F
--% Chance of Precip.
Yesterday
High -- | Low -- °F
Precip. -- in
7:24 AM 5:45 PM
First Quarter, 52% visible
Pressure 30.03 in
Visibility 10.0 miles
Clouds Few 3600 ft
Overcast 5000 ft
Windchill 36 °F
Dew Point 31 °F
Humidity 60%
Rainfall 0.00 in
Snow Depth Not available.
UV 0 out of 12
Pollen .10 out of 12
Air Quality Not available.
Flu Activity Not available.
METAR KMKE 310652Z 32016G22KT 10SM FEW036 OVC050 07/M01 A3002 RMK AO2 RAE01 SLP169 P0000 T00671006

More Conditions Fewer Conditions

Pressure 30.03 in
Visibility 10.0 miles
Clouds Few 3600 ft
Overcast 5000 ft
Windchill 36 °F
Dew Point 31 °F
Humidity 60%
Rainfall 0.00 in
Snow Depth Not available.
UV 0 out of 12
Pollen .10 out of 12
Air Quality Not available.
Flu Activity Not available.
METAR KMKE 310652Z 32016G22KT 10SM FEW036 OVC050 07/M01 A3002 RMK AO2 RAE01 SLP169 P0000 T00671006

More Conditions Fewer Conditions

10-Day Weather Forecast

Almanac

Astronomy

Oct. 31, 2014 Rise Set
Actual Time
Civil Twilight
Nautical Twilight
Astronomical Twilight
Moon
Length of Visible Light
Length of Day
Tomorrow will be .
, % of the Moon is Illuminated

Today's Extremes

State Highs State Lows

Community

WunderPhotos

Upload Photos

1,766,571 photos uploaded!

WunderBlogs® & News

Nearby

Air Quality

  Air Quality AQ Index Pollutant
Not available.

Snow Depth

Station Depth Elevation

Earthquake Activity

City Distance Mag. Time & Date
Minimum magnitude displayed is 2.5.

Coastal Water Temperatures

Place Temperature

Nearby Weather Stations